createdAt,value
2022-11-17T00:05:29.672Z,0.6
2022-11-17T00:25:29.821Z,0.7
2022-11-17T00:35:29.700Z,0.7
2022-11-17T00:55:29.809Z,1
2022-11-17T01:05:32.999Z,1.2
2022-11-17T01:15:29.818Z,1.1
2022-11-17T01:25:29.813Z,0.8
2022-11-17T01:35:29.969Z,0.8
2022-11-17T01:45:29.855Z,0.8
2022-11-17T01:55:29.989Z,0.6
2022-11-17T02:05:29.880Z,0.5
2022-11-17T02:15:29.943Z,0.5
2022-11-17T02:25:29.957Z,0.5
2022-11-17T02:55:30.076Z,0.6
2022-11-17T03:25:30.185Z,0.6
2022-11-17T03:35:30.097Z,0.6
2022-11-17T03:45:30.214Z,0.6
2022-11-17T04:05:30.286Z,0.7
2022-11-17T04:15:30.156Z,0.8
2022-11-17T04:25:30.307Z,0.8
2022-11-17T04:35:30.195Z,0.8
2022-11-17T04:55:30.378Z,0.8
2022-11-17T05:05:30.266Z,0.8
2022-11-17T05:15:30.311Z,0.9
2022-11-17T05:35:30.337Z,1
2022-11-17T05:45:30.381Z,1.1
2022-11-17T05:55:30.506Z,1.2
2022-11-17T06:05:30.404Z,1.3
2022-11-17T06:15:30.528Z,1.1
2022-11-17T06:25:30.436Z,1.1
2022-11-17T06:45:30.598Z,0.9
2022-11-17T06:55:30.500Z,0.8
2022-11-17T07:05:30.556Z,0.6
2022-11-17T07:15:30.527Z,0.5
2022-11-17T07:25:30.678Z,0.4
2022-11-17T07:35:30.574Z,0.4
2022-11-17T07:45:32.224Z,0.4
2022-11-17T07:55:30.618Z,0.4
2022-11-17T08:05:30.669Z,0.4
2022-11-17T08:15:30.654Z,0.4
2022-11-17T08:25:30.813Z,0.5
2022-11-17T08:35:35.839Z,0.5
2022-11-17T08:45:30.825Z,0.6
2022-11-17T09:05:30.827Z,0.6
2022-11-17T09:45:30.864Z,1.3
2022-11-17T09:55:33.902Z,1.4
2022-11-17T10:25:31.045Z,2.1
2022-11-17T10:35:30.952Z,2.3
2022-11-17T10:45:31.017Z,2.7
2022-11-17T10:55:30.980Z,2.7
2022-11-17T11:05:31.300Z,2.9
2022-11-17T11:35:31.084Z,2.8
2022-11-17T11:45:31.074Z,2.8
2022-11-17T11:55:31.115Z,3.1
2022-11-17T12:15:31.161Z,3.3
2022-11-17T12:25:31.122Z,3.4
2022-11-17T12:35:31.313Z,3.5
2022-11-17T12:45:31.202Z,3.6
2022-11-17T12:55:31.243Z,3.6
2022-11-17T13:05:31.230Z,3.9
2022-11-17T13:15:31.368Z,3.8
2022-11-17T13:25:31.342Z,4.1
2022-11-17T13:45:31.308Z,4.5
2022-11-17T14:15:31.392Z,4.4
2022-11-17T14:35:31.517Z,3.9
2022-11-17T14:45:31.409Z,3.8
2022-11-17T14:55:31.452Z,3.6
2022-11-17T15:15:31.512Z,3.4
2022-11-17T15:25:31.475Z,3.4
2022-11-17T15:35:31.573Z,3.2
2022-11-17T15:45:31.499Z,3.2
2022-11-17T15:55:31.562Z,3.1
2022-11-17T16:05:31.573Z,2.9
2022-11-17T16:15:31.609Z,2.7
2022-11-17T16:25:31.596Z,2.5
2022-11-17T16:35:31.663Z,2.4
2022-11-17T16:55:31.689Z,2.2
2022-11-17T17:05:31.705Z,2.1
2022-11-17T17:15:31.788Z,2
2022-11-17T17:25:31.739Z,2
2022-11-17T17:35:31.793Z,1.9
2022-11-17T17:45:31.763Z,1.8
2022-11-17T17:55:31.831Z,1.7
2022-11-17T18:05:31.815Z,1.6
2022-11-17T18:15:31.846Z,1.5
2022-11-17T18:25:31.852Z,1.3
2022-11-17T19:05:31.988Z,0.9
2022-11-17T19:15:31.967Z,0.8
2022-11-17T19:25:31.998Z,0.8
2022-11-17T19:35:31.998Z,0.7
2022-11-17T19:45:32.152Z,0.8
2022-11-17T19:55:32.045Z,0.7
2022-11-17T20:15:35.286Z,0.6
2022-11-17T20:25:32.107Z,0.6
2022-11-17T22:05:32.359Z,0.4
2022-11-17T22:15:32.326Z,0.4
2022-11-17T22:55:32.448Z,0.3
2022-11-17T23:05:32.474Z,0.3
2022-11-17T23:15:32.497Z,0.3
2022-11-17T23:25:32.505Z,0.3
2022-11-17T23:35:32.560Z,0.3
2022-11-17T23:45:32.565Z,0.3
